Time;durP1;ratioP1;P1;durP2;ratioP2;P2;SDS_P1;SDS_P2;PMS_P1;PMS_P2;Temp;Humidity;BMP_temperature;BMP_pressure;BME280_temperature;BME280_humidity;BME280_pressure;Samples;Min_cycle;Max_cycle;Signal;HPM_P1;HPM_P2
2022/09/08 00:00:08;;;;;;;;;;;;;;;;;;348606;28;961;-63
2022/09/08 00:00:18;;;;;;;;;;;;;;;;;;348607;28;940;-63
2022/09/08 00:00:28;;;;;;;;;;;;;;;;;;348614;28;920;-62
2022/09/08 00:00:39;;;;;;;;;;;;;;;;;;348632;28;960;-63
2022/09/08 00:00:50;;;;;;;;;;;;;;;;;;348582;28;980;-62
2022/09/08 00:01:07;;;;;;;;;;;;;;;;;;348104;28;1885;-63
2022/09/08 00:01:17;;;;;;;;;;;;;;;;;;348700;28;818;-63
2022/09/08 00:01:28;;;;;;;;;;;;;;;;;;348581;28;975;-63
2022/09/08 00:01:39;;;;;;;;;;;;;;;;;;348588;28;819;-62
2022/09/08 00:01:49;;;;;;;;;;;;;;;;;;348620;28;948;-62
2022/09/08 00:01:59;;;;;;;;;;;;;;;;;;348617;28;833;-62
2022/09/08 00:02:09;;;;;;;;;;;;;;;;;;348582;28;893;-63
2022/09/08 00:02:20;;;;;;;;;;;;;;;;;;348620;28;792;-62
2022/09/08 00:02:30;;;;;;;;;;;;;;;;;;348636;28;992;-63
2022/09/08 00:02:40;;;;;;;;;;;;;;;;;;348575;28;945;-63
2022/09/08 00:02:50;;;;;;;;;;;;;;;;;;348597;28;932;-63
2022/09/08 00:03:03;;;;;;;;;;;;;;;;;;348631;28;946;-62
2022/09/08 00:03:15;;;;;;;;;;;;;;;;;;348643;28;1116;-63
2022/09/08 00:03:26;;;;;;;;;;;;;;;;;;348633;28;849;-63
2022/09/08 00:03:36;;;;;;;;;;;;;;;;;;348644;28;920;-63
2022/09/08 00:03:46;;;;;;;;;;;;;;;;;;348488;28;1201;-64
2022/09/08 00:03:57;;;;;;;;;;;;;;;;;;348575;28;1011;-62
2022/09/08 00:04:08;;;;;;;;;;;;;;;;;;348601;28;916;-63
2022/09/08 00:04:18;;;;;;;;;;;;;;;;;;348653;28;862;-62
2022/09/08 00:04:28;;;;;;;;;;;;;;;;;;348623;28;1033;-62
2022/09/08 00:04:39;;;;;;;;;;;;;;;;;;348604;28;976;-62
2022/09/08 00:04:50;;;;;;;;;;;;;;;;;;348645;28;829;-62
2022/09/08 00:05:00;;;;;;;;;;;;;;;;;;348597;28;969;-63
2022/09/08 00:05:13;;;;;;;;;;;;;;;;;;348593;28;1015;-62
2022/09/08 00:05:24;;;;;;;;;;;;;;;;;;348595;28;984;-63
2022/09/08 00:05:38;;;;;;;;;;;;;;;;;;348544;28;956;-62
2022/09/08 00:06:00;;;;;;;;;;;;;;;;;;348625;28;988;-62
2022/09/08 00:06:12;;;;;;;;;;;;;;;;;;348678;28;1300;-62
2022/09/08 00:06:22;;;;;;;;;;;;;;;;;;349939;28;929;-63
2022/09/08 00:06:33;;;;;;;;;;;;;;;;;;349957;28;1000;-63
2022/09/08 00:06:44;;;;;;;;;;;;;;;;;;349954;28;980;-62
2022/09/08 00:06:55;;;;;;;;;;;;;;;;;;350022;28;1011;-63
2022/09/08 00:07:07;;;;;;;;;;;;;;;;;;349998;28;983;-63
2022/09/08 00:07:18;;;;;;;;;;;;;;;;;;349907;28;864;-63
2022/09/08 00:07:29;;;;;;;;;;;;;;;;;;350002;28;995;-62
2022/09/08 00:07:39;;;;;;;;;;;;;;;;;;349995;28;984;-62
2022/09/08 00:07:51;;;;;;;;;;;;;;;;;;349894;28;976;-63
2022/09/08 00:08:02;;;;;;;;;;;;;;;;;;349859;28;896;-63
2022/09/08 00:08:12;;;;;;;;;;;;;;;;;;349923;28;825;-63
2022/09/08 00:08:23;;;;;;;;;;;;;;;;;;349883;28;1910;-63
2022/09/08 00:08:34;;;;;;;;;;;;;;;;;;350005;28;941;-63
2022/09/08 00:08:45;;;;;;;;;;;;;;;;;;349997;28;928;-63
2022/09/08 00:08:55;;;;;;;;;;;;;;;;;;350000;28;920;-63
2022/09/08 00:09:06;;;;;;;;;;;;;;;;;;350008;28;1007;-63
2022/09/08 00:09:16;;;;;;;;;;;;;;;;;;350006;28;932;-63
2022/09/08 00:09:27;;;;;;;;;;;;;;;;;;349965;28;1193;-63
2022/09/08 00:09:37;;;;;;;;;;;;;;;;;;349958;28;984;-63
2022/09/08 00:09:48;;;;;;;;;;;;;;;;;;349953;28;865;-63
2022/09/08 00:09:58;;;;;;;;;;;;;;;;;;350029;28;925;-63
2022/09/08 00:10:11;;;;;;;;;;;;;;;;;;349932;28;941;-63
2022/09/08 00:10:22;;;;;;;;;;;;;;;;;;349969;28;971;-63
2022/09/08 00:10:33;;;;;;;;;;;;;;;;;;349111;28;1369;-62
2022/09/08 00:10:43;;;;;;;;;;;;;;;;;;349829;28;1336;-63
2022/09/08 00:10:56;;;;;;;;;;;;;;;;;;349990;28;955;-62
2022/09/08 00:11:08;;;;;;;;;;;;;;;;;;349945;28;1149;-63
2022/09/08 00:11:20;;;;;;;;;;;;;;;;;;350007;27;916;-63
2022/09/08 00:11:31;;;;;;;;;;;;;;;;;;349970;28;1270;-63
2022/09/08 00:11:41;;;;;;;;;;;;;;;;;;350005;28;916;-63
2022/09/08 00:11:52;;;;;;;;;;;;;;;;;;349981;28;875;-63
2022/09/08 00:12:03;;;;;;;;;;;;;;;;;;349961;28;928;-62
2022/09/08 00:12:14;;;;;;;;;;;;;;;;;;349957;28;845;-63
2022/09/08 00:12:24;;;;;;;;;;;;;;;;;;349938;28;928;-63
2022/09/08 00:12:42;;;;;;;;;;;;;;;;;;349880;28;1705;-63
2022/09/08 00:12:53;;;;;;;;;;;;;;;;;;349958;28;929;-62
2022/09/08 00:13:03;;;;;;;;;;;;;;;;;;349957;28;1027;-62
2022/09/08 00:13:13;;;;;;;;;;;;;;;;;;349997;28;785;-62
2022/09/08 00:13:25;;;;;;;;;;;;;;;;;;349935;28;786;-63
2022/09/08 00:13:36;;;;;;;;;;;;;;;;;;349948;28;1168;-62
2022/09/08 00:13:48;;;;;;;;;;;;;;;;;;349997;28;995;-63
2022/09/08 00:13:59;;;;;;;;;;;;;;;;;;350000;28;804;-63
2022/09/08 00:14:09;;;;;;;;;;;;;;;;;;349976;28;924;-63
2022/09/08 00:14:19;;;;;;;;;;;;;;;;;;349970;28;944;-62
2022/09/08 00:14:32;;;;;;;;;;;;;;;;;;349887;28;968;-63
2022/09/08 00:14:42;;;;;;;;;;;;;;;;;;350025;28;849;-62
2022/09/08 00:14:53;;;;;;;;;;;;;;;;;;349959;28;1610;-63
2022/09/08 00:15:04;;;;;;;;;;;;;;;;;;349816;28;1368;-63
2022/09/08 00:15:14;;;;;;;;;;;;;;;;;;349994;28;770;-63
2022/09/08 00:15:24;;;;;;;;;;;;;;;;;;349983;28;920;-63
2022/09/08 00:15:37;;;;;;;;;;;;;;;;;;349950;28;974;-63
2022/09/08 00:15:49;;;;;;;;;;;;;;;;;;349976;28;920;-63
2022/09/08 00:16:02;;;;;;;;;;;;;;;;;;349983;28;889;-63
2022/09/08 00:16:12;;;;;;;;;;;;;;;;;;349975;28;770;-63
2022/09/08 00:16:23;;;;;;;;;;;;;;;;;;349958;28;936;-63
2022/09/08 00:16:33;;;;;;;;;;;;;;;;;;349948;28;991;-63
2022/09/08 00:16:43;;;;;;;;;;;;;;;;;;349943;28;987;-63
2022/09/08 00:16:54;;;;;;;;;;;;;;;;;;349916;28;1109;-63
2022/09/08 00:17:04;;;;;;;;;;;;;;;;;;349991;28;869;-63
2022/09/08 00:17:15;;;;;;;;;;;;;;;;;;349957;28;873;-63
2022/09/08 00:17:27;;;;;;;;;;;;;;;;;;349961;28;814;-63
2022/09/08 00:17:38;;;;;;;;;;;;;;;;;;349937;28;769;-62
2022/09/08 00:17:48;;;;;;;;;;;;;;;;;;349957;28;936;-63
2022/09/08 00:17:58;;;;;;;;;;;;;;;;;;349924;28;925;-63
2022/09/08 00:18:09;;;;;;;;;;;;;;;;;;350012;28;798;-63
2022/09/08 00:18:19;;;;;;;;;;;;;;;;;;350016;28;1117;-62
2022/09/08 00:18:29;;;;;;;;;;;;;;;;;;349948;28;1016;-63
2022/09/08 00:18:40;;;;;;;;;;;;;;;;;;349893;28;1019;-63
2022/09/08 00:18:50;;;;;;;;;;;;;;;;;;350000;28;917;-63
2022/09/08 00:19:01;;;;;;;;;;;;;;;;;;349990;28;928;-63
2022/09/08 00:19:11;;;;;;;;;;;;;;;;;;349980;28;921;-63
2022/09/08 00:19:22;;;;;;;;;;;;;;;;;;350015;28;1003;-62
2022/09/08 00:19:32;;;;;;;;;;;;;;;;;;349931;28;877;-63
2022/09/08 00:19:42;;;;;;;;;;;;;;;;;;349977;28;925;-63
2022/09/08 00:19:52;;;;;;;;;;;;;;;;;;349928;28;851;-62
2022/09/08 00:20:03;;;;;;;;;;;;;;;;;;349955;28;909;-63
2022/09/08 00:20:14;;;;;;;;;;;;;;;;;;349953;28;933;-63
2022/09/08 00:20:24;;;;;;;;;;;;;;;;;;349930;28;979;-63
2022/09/08 00:20:34;;;;;;;;;;;;;;;;;;349922;28;963;-62
2022/09/08 00:20:44;;;;;;;;;;;;;;;;;;349966;28;1004;-62
2022/09/08 00:20:55;;;;;;;;;;;;;;;;;;350519;28;1303;-62
2022/09/08 00:21:05;;;;;;;;;;;;;;;;;;351350;28;936;-63
2022/09/08 00:21:15;;;;;;;;;;;;;;;;;;351285;28;956;-63
2022/09/08 00:21:27;;;;;;;;;;;;;;;;;;351385;28;857;-62
2022/09/08 00:21:37;;;;;;;;;;;;;;;;;;351371;28;1020;-63
2022/09/08 00:21:47;;;;;;;;;;;;;;;;;;351360;28;996;-63
2022/09/08 00:21:57;;;;;;;;;;;;;;;;;;351334;28;857;-62
2022/09/08 00:22:07;;;;;;;;;;;;;;;;;;351343;28;952;-63
2022/09/08 00:22:17;;;;;;;;;;;;;;;;;;351347;28;963;-62
2022/09/08 00:22:28;;;;;;;;;;;;;;;;;;351376;28;881;-63
2022/09/08 00:22:38;;;;;;;;;;;;;;;;;;351307;28;1003;-63
2022/09/08 00:22:48;;;;;;;;;;;;;;;;;;351349;28;861;-63
2022/09/08 00:22:58;;;;;;;;;;;;;;;;;;351294;28;988;-63
2022/09/08 00:23:09;;;;;;;;;;;;;;;;;;351376;28;932;-63
2022/09/08 00:23:19;;;;;;;;;;;;;;;;;;351307;28;1101;-62
2022/09/08 00:23:29;;;;;;;;;;;;;;;;;;351288;28;1015;-63
2022/09/08 00:23:39;;;;;;;;;;;;;;;;;;351390;28;900;-63
2022/09/08 00:23:50;;;;;;;;;;;;;;;;;;351367;28;976;-63
2022/09/08 00:24:00;;;;;;;;;;;;;;;;;;351259;28;928;-63
2022/09/08 00:24:10;;;;;;;;;;;;;;;;;;351353;28;1008;-63
2022/09/08 00:24:20;;;;;;;;;;;;;;;;;;351341;28;996;-63
2022/09/08 00:24:30;;;;;;;;;;;;;;;;;;351310;28;1025;-62
2022/09/08 00:24:41;;;;;;;;;;;;;;;;;;351355;28;940;-63
2022/09/08 00:24:51;;;;;;;;;;;;;;;;;;351301;28;870;-63
2022/09/08 00:25:02;;;;;;;;;;;;;;;;;;351278;28;995;-63
2022/09/08 00:25:12;;;;;;;;;;;;;;;;;;351307;28;1133;-62
2022/09/08 00:25:22;;;;;;;;;;;;;;;;;;349421;28;1368;-63
2022/09/08 00:25:33;;;;;;;;;;;;;;;;;;349904;28;913;-63
2022/09/08 00:25:43;;;;;;;;;;;;;;;;;;350002;28;824;-63
2022/09/08 00:25:53;;;;;;;;;;;;;;;;;;349982;28;924;-63
2022/09/08 00:26:04;;;;;;;;;;;;;;;;;;349945;28;909;-62
2022/09/08 00:26:14;;;;;;;;;;;;;;;;;;349959;28;924;-63
2022/09/08 00:26:24;;;;;;;;;;;;;;;;;;349945;28;908;-63
2022/09/08 00:26:34;;;;;;;;;;;;;;;;;;349925;28;889;-63
2022/09/08 00:26:45;;;;;;;;;;;;;;;;;;349987;28;925;-63
2022/09/08 00:26:55;;;;;;;;;;;;;;;;;;349938;28;1074;-62
2022/09/08 00:27:05;;;;;;;;;;;;;;;;;;349945;28;869;-63
2022/09/08 00:27:15;;;;;;;;;;;;;;;;;;349989;28;908;-63
2022/09/08 00:27:25;;;;;;;;;;;;;;;;;;349992;28;975;-63
2022/09/08 00:27:36;;;;;;;;;;;;;;;;;;349946;28;932;-62
2022/09/08 00:27:46;;;;;;;;;;;;;;;;;;349965;28;925;-63
2022/09/08 00:27:56;;;;;;;;;;;;;;;;;;349944;28;851;-63
2022/09/08 00:28:06;;;;;;;;;;;;;;;;;;349943;28;920;-63
2022/09/08 00:28:17;;;;;;;;;;;;;;;;;;349969;28;929;-62
2022/09/08 00:28:27;;;;;;;;;;;;;;;;;;349880;28;1973;-63
2022/09/08 00:28:37;;;;;;;;;;;;;;;;;;349990;28;782;-63
2022/09/08 00:28:48;;;;;;;;;;;;;;;;;;349968;28;905;-63
2022/09/08 00:28:58;;;;;;;;;;;;;;;;;;349891;28;1721;-63
2022/09/08 00:29:09;;;;;;;;;;;;;;;;;;349981;28;908;-63
2022/09/08 00:29:19;;;;;;;;;;;;;;;;;;349919;28;952;-63
2022/09/08 00:29:30;;;;;;;;;;;;;;;;;;349952;28;949;-63
2022/09/08 00:29:40;;;;;;;;;;;;;;;;;;349988;28;854;-63
2022/09/08 00:29:50;;;;;;;;;;;;;;;;;;349985;28;908;-63
2022/09/08 00:30:00;;;;;;;;;;;;;;;;;;349964;28;948;-63
2022/09/08 00:30:11;;;;;;;;;;;;;;;;;;349926;28;866;-63
2022/09/08 00:30:21;;;;;;;;;;;;;;;;;;349972;28;933;-63
2022/09/08 00:30:32;;;;;;;;;;;;;;;;;;349961;28;984;-63
2022/09/08 00:30:42;;;;;;;;;;;;;;;;;;349096;28;2013;-63
2022/09/08 00:30:54;;;;;;;;;;;;;;;;;;351325;28;996;-63
2022/09/08 00:31:05;;;;;;;;;;;;;;;;;;351271;28;976;-63
2022/09/08 00:31:15;;;;;;;;;;;;;;;;;;351340;28;991;-63
2022/09/08 00:31:25;;;;;;;;;;;;;;;;;;351340;28;1169;-63
2022/09/08 00:31:36;;;;;;;;;;;;;;;;;;351363;28;912;-63
2022/09/08 00:31:47;;;;;;;;;;;;;;;;;;351391;28;967;-63
2022/09/08 00:31:57;;;;;;;;;;;;;;;;;;351297;28;936;-63
2022/09/08 00:32:07;;;;;;;;;;;;;;;;;;351329;28;916;-62
2022/09/08 00:32:20;;;;;;;;;;;;;;;;;;351329;28;837;-63
2022/09/08 00:32:30;;;;;;;;;;;;;;;;;;349524;28;1341;-63
2022/09/08 00:32:40;;;;;;;;;;;;;;;;;;349967;28;901;-63
2022/09/08 00:32:50;;;;;;;;;;;;;;;;;;349954;28;833;-63
2022/09/08 00:33:01;;;;;;;;;;;;;;;;;;349962;28;940;-63
2022/09/08 00:33:11;;;;;;;;;;;;;;;;;;349872;28;865;-63
2022/09/08 00:33:22;;;;;;;;;;;;;;;;;;349992;28;975;-63
2022/09/08 00:33:32;;;;;;;;;;;;;;;;;;350013;28;794;-63
2022/09/08 00:33:44;;;;;;;;;;;;;;;;;;349928;28;992;-63
2022/09/08 00:33:54;;;;;;;;;;;;;;;;;;349967;28;991;-62
2022/09/08 00:34:04;;;;;;;;;;;;;;;;;;349983;28;814;-63
2022/09/08 00:34:14;;;;;;;;;;;;;;;;;;349961;28;798;-62
2022/09/08 00:34:25;;;;;;;;;;;;;;;;;;349975;28;921;-63
2022/09/08 00:34:35;;;;;;;;;;;;;;;;;;349992;28;869;-62
2022/09/08 00:34:46;;;;;;;;;;;;;;;;;;349967;28;936;-62
2022/09/08 00:34:58;;;;;;;;;;;;;;;;;;349986;28;928;-62
2022/09/08 00:35:14;;;;;;;;;;;;;;;;;;349922;28;928;-62
2022/09/08 00:35:24;;;;;;;;;;;;;;;;;;349941;28;781;-63
2022/09/08 00:35:35;;;;;;;;;;;;;;;;;;349996;28;837;-63
2022/09/08 00:35:45;;;;;;;;;;;;;;;;;;349962;28;940;-63
2022/09/08 00:35:55;;;;;;;;;;;;;;;;;;349981;28;877;-63
2022/09/08 00:36:07;;;;;;;;;;;;;;;;;;349949;28;893;-63
2022/09/08 00:36:17;;;;;;;;;;;;;;;;;;349902;28;944;-63
2022/09/08 00:36:28;;;;;;;;;;;;;;;;;;349986;28;976;-63
2022/09/08 00:36:40;;;;;;;;;;;;;;;;;;349929;28;1062;-63
2022/09/08 00:36:51;;;;;;;;;;;;;;;;;;349381;28;1299;-63
2022/09/08 00:37:02;;;;;;;;;;;;;;;;;;349725;28;1562;-63
2022/09/08 00:37:13;;;;;;;;;;;;;;;;;;349960;28;928;-63
2022/09/08 00:37:26;;;;;;;;;;;;;;;;;;349954;28;967;-63
2022/09/08 00:37:36;;;;;;;;;;;;;;;;;;350014;28;1114;-63
2022/09/08 00:37:46;;;;;;;;;;;;;;;;;;349967;28;979;-63
2022/09/08 00:37:57;;;;;;;;;;;;;;;;;;349918;28;984;-63
2022/09/08 00:38:07;;;;;;;;;;;;;;;;;;349974;28;869;-63
2022/09/08 00:38:19;;;;;;;;;;;;;;;;;;349956;28;913;-62
2022/09/08 00:38:30;;;;;;;;;;;;;;;;;;349904;28;968;-63
2022/09/08 00:38:41;;;;;;;;;;;;;;;;;;349924;28;1007;-63
2022/09/08 00:38:52;;;;;;;;;;;;;;;;;;349971;28;928;-63
2022/09/08 00:39:03;;;;;;;;;;;;;;;;;;349953;28;789;-62
2022/09/08 00:39:15;;;;;;;;;;;;;;;;;;349970;28;873;-63
2022/09/08 00:39:25;;;;;;;;;;;;;;;;;;349817;28;995;-63
2022/09/08 00:39:35;;;;;;;;;;;;;;;;;;349971;27;1005;-63
2022/09/08 00:39:46;;;;;;;;;;;;;;;;;;349972;28;992;-63
2022/09/08 00:39:56;;;;;;;;;;;;;;;;;;349972;28;944;-63
2022/09/08 00:40:07;;;;;;;;;;;;;;;;;;349964;28;1045;-63
2022/09/08 00:40:18;;;;;;;;;;;;;;;;;;349849;28;1087;-63
2022/09/08 00:40:29;;;;;;;;;;;;;;;;;;349970;28;881;-63
2022/09/08 00:40:41;;;;;;;;;;;;;;;;;;349954;28;968;-63
2022/09/08 00:40:52;;;;;;;;;;;;;;;;;;349983;28;778;-63
2022/09/08 00:41:09;;;;;;;;;;;;;;;;;;349975;28;924;-62
2022/09/08 00:41:20;;;;;;;;;;;;;;;;;;349996;28;1031;-63
2022/09/08 00:41:30;;;;;;;;;;;;;;;;;;349903;28;925;-63
2022/09/08 00:41:40;;;;;;;;;;;;;;;;;;349943;28;994;-63
2022/09/08 00:41:51;;;;;;;;;;;;;;;;;;350003;28;985;-63
2022/09/08 00:42:01;;;;;;;;;;;;;;;;;;350005;28;857;-63
2022/09/08 00:42:11;;;;;;;;;;;;;;;;;;349912;28;980;-63
2022/09/08 00:42:21;;;;;;;;;;;;;;;;;;349908;28;887;-63
2022/09/08 00:42:31;;;;;;;;;;;;;;;;;;349961;28;999;-63
2022/09/08 00:42:42;;;;;;;;;;;;;;;;;;349920;28;913;-63
2022/09/08 00:42:59;;;;;;;;;;;;;;;;;;349989;27;919;-63
2022/09/08 00:43:09;;;;;;;;;;;;;;;;;;349927;28;998;-63
2022/09/08 00:43:32;;;;;;;;;;;;;;;;;;349928;28;924;-63
2022/09/08 00:43:43;;;;;;;;;;;;;;;;;;349916;28;908;-63
2022/09/08 00:43:58;;;;;;;;;;;;;;;;;;352566;28;1332;-63
2022/09/08 00:44:26;;;;;;;;;;;;;;;;;;352619;28;999;-63
2022/09/08 00:44:39;;;;;;;;;;;;;;;;;;352586;28;913;-63
2022/09/08 00:44:49;;;;;;;;;;;;;;;;;;352650;28;960;-63
2022/09/08 00:44:59;;;;;;;;;;;;;;;;;;352659;28;912;-63
2022/09/08 00:45:10;;;;;;;;;;;;;;;;;;352647;28;928;-63
2022/09/08 00:45:20;;;;;;;;;;;;;;;;;;352702;28;758;-63
2022/09/08 00:45:36;;;;;;;;;;;;;;;;;;352605;28;1161;-63
2022/09/08 00:45:47;;;;;;;;;;;;;;;;;;352245;28;944;-63
2022/09/08 00:46:03;;;;;;;;;;;;;;;;;;349958;28;945;-62
2022/09/08 00:46:20;;;;;;;;;;;;;;;;;;349963;28;1019;-63
2022/09/08 00:46:35;;;;;;;;;;;;;;;;;;349966;28;838;-63
2022/09/08 00:46:46;;;;;;;;;;;;;;;;;;349924;28;916;-62
2022/09/08 00:46:56;;;;;;;;;;;;;;;;;;349926;28;1011;-63
2022/09/08 00:47:13;;;;;;;;;;;;;;;;;;349921;28;841;-62
2022/09/08 00:47:29;;;;;;;;;;;;;;;;;;349975;28;849;-63
2022/09/08 00:47:46;;;;;;;;;;;;;;;;;;349922;28;947;-63
2022/09/08 00:48:05;;;;;;;;;;;;;;;;;;349930;28;931;-63
2022/09/08 00:48:16;;;;;;;;;;;;;;;;;;349978;28;837;-63
2022/09/08 00:48:27;;;;;;;;;;;;;;;;;;349839;28;1906;-63
2022/09/08 00:48:41;;;;;;;;;;;;;;;;;;349886;28;1011;-63
2022/09/08 00:48:59;;;;;;;;;;;;;;;;;;349933;28;1039;-63
2022/09/08 00:49:16;;;;;;;;;;;;;;;;;;349916;28;983;-63
2022/09/08 00:49:28;;;;;;;;;;;;;;;;;;349948;28;932;-63
2022/09/08 00:49:39;;;;;;;;;;;;;;;;;;349962;28;956;-63
2022/09/08 00:49:52;;;;;;;;;;;;;;;;;;349911;28;889;-63
2022/09/08 00:50:22;;;;;;;;;;;;;;;;;;349916;28;991;-63
2022/09/08 00:50:33;;;;;;;;;;;;;;;;;;349906;28;983;-63
2022/09/08 00:50:44;;;;;;;;;;;;;;;;;;349911;28;983;-63
2022/09/08 00:50:58;;;;;;;;;;;;;;;;;;349943;28;971;-62
2022/09/08 00:51:08;;;;;;;;;;;;;;;;;;349956;28;947;-63
2022/09/08 00:51:19;;;;;;;;;;;;;;;;;;349979;27;1326;-63
2022/09/08 00:51:30;;;;;;;;;;;;;;;;;;349873;28;1006;-62
2022/09/08 00:51:42;;;;;;;;;;;;;;;;;;349250;28;1376;-63
2022/09/08 00:51:55;;;;;;;;;;;;;;;;;;349789;28;1067;-63
2022/09/08 00:52:05;;;;;;;;;;;;;;;;;;350006;28;924;-63
2022/09/08 00:52:16;;;;;;;;;;;;;;;;;;349953;28;853;-63
2022/09/08 00:52:28;;;;;;;;;;;;;;;;;;349946;28;1019;-63
2022/09/08 00:52:42;;;;;;;;;;;;;;;;;;349956;28;940;-62
2022/09/08 00:52:54;;;;;;;;;;;;;;;;;;349941;28;755;-63
2022/09/08 00:53:08;;;;;;;;;;;;;;;;;;349940;28;874;-63
2022/09/08 00:53:19;;;;;;;;;;;;;;;;;;349955;28;975;-63
2022/09/08 00:53:31;;;;;;;;;;;;;;;;;;349890;28;880;-63
2022/09/08 00:53:41;;;;;;;;;;;;;;;;;;349914;28;929;-63
2022/09/08 00:53:52;;;;;;;;;;;;;;;;;;349972;28;967;-63
2022/09/08 00:54:02;;;;;;;;;;;;;;;;;;349844;28;1090;-63
2022/09/08 00:54:14;;;;;;;;;;;;;;;;;;349925;28;1155;-63
2022/09/08 00:54:25;;;;;;;;;;;;;;;;;;349992;28;804;-63
2022/09/08 00:54:35;;;;;;;;;;;;;;;;;;349864;28;1055;-63
2022/09/08 00:54:46;;;;;;;;;;;;;;;;;;349948;28;928;-63
2022/09/08 00:54:56;;;;;;;;;;;;;;;;;;349967;28;947;-63
2022/09/08 00:55:08;;;;;;;;;;;;;;;;;;349897;28;979;-63
2022/09/08 00:55:19;;;;;;;;;;;;;;;;;;349926;28;960;-63
2022/09/08 00:55:31;;;;;;;;;;;;;;;;;;349965;28;902;-63
2022/09/08 00:55:42;;;;;;;;;;;;;;;;;;349905;28;853;-63
2022/09/08 00:55:52;;;;;;;;;;;;;;;;;;349922;28;1003;-63
2022/09/08 00:56:05;;;;;;;;;;;;;;;;;;349937;28;893;-63
2022/09/08 00:56:16;;;;;;;;;;;;;;;;;;349938;28;836;-62
2022/09/08 00:56:27;;;;;;;;;;;;;;;;;;349989;28;929;-63
2022/09/08 00:56:39;;;;;;;;;;;;;;;;;;349912;28;844;-63
2022/09/08 00:56:49;;;;;;;;;;;;;;;;;;349990;28;991;-63
2022/09/08 00:56:59;;;;;;;;;;;;;;;;;;350005;28;866;-63
2022/09/08 00:57:10;;;;;;;;;;;;;;;;;;349939;28;924;-63
2022/09/08 00:57:20;;;;;;;;;;;;;;;;;;349947;28;940;-63
2022/09/08 00:57:30;;;;;;;;;;;;;;;;;;350001;28;778;-63
2022/09/08 00:57:40;;;;;;;;;;;;;;;;;;349864;28;924;-63
2022/09/08 00:57:51;;;;;;;;;;;;;;;;;;349967;28;845;-63
2022/09/08 00:58:01;;;;;;;;;;;;;;;;;;349915;28;808;-63
2022/09/08 00:58:12;;;;;;;;;;;;;;;;;;349915;28;920;-62
2022/09/08 00:58:22;;;;;;;;;;;;;;;;;;349924;28;952;-63
2022/09/08 00:58:37;;;;;;;;;;;;;;;;;;349951;28;987;-63
2022/09/08 00:58:48;;;;;;;;;;;;;;;;;;349029;28;1310;-63
2022/09/08 00:59:00;;;;;;;;;;;;;;;;;;349919;28;967;-63
2022/09/08 00:59:11;;;;;;;;;;;;;;;;;;349952;28;778;-63
2022/09/08 00:59:23;;;;;;;;;;;;;;;;;;350016;28;829;-62
2022/09/08 00:59:36;;;;;;;;;;;;;;;;;;349945;28;893;-63
2022/09/08 00:59:48;;;;;;;;;;;;;;;;;;349921;28;976;-62
2022/09/08 00:59:59;;;;;;;;;;;;;;;;;;349979;28;944;-63
2022/09/08 01:00:11;;;;;;;;;;;;;;;;;;349886;28;980;-63
2022/09/08 01:00:21;;;;;;;;;;;;;;;;;;349957;28;1034;-63
2022/09/08 01:00:34;;;;;;;;;;;;;;;;;;349987;28;769;-63
2022/09/08 01:00:44;;;;;;;;;;;;;;;;;;348890;28;1974;-63
2022/09/08 01:00:55;;;;;;;;;;;;;;;;;;349969;28;857;-63
2022/09/08 01:01:05;;;;;;;;;;;;;;;;;;349979;28;785;-63
2022/09/08 01:01:15;;;;;;;;;;;;;;;;;;349949;28;948;-63
2022/09/08 01:01:26;;;;;;;;;;;;;;;;;;349894;28;1208;-63
2022/09/08 01:01:36;;;;;;;;;;;;;;;;;;349959;28;924;-63
2022/09/08 01:01:46;;;;;;;;;;;;;;;;;;349903;28;987;-63
2022/09/08 01:01:56;;;;;;;;;;;;;;;;;;349930;28;906;-63
2022/09/08 01:02:19;;;;;;;;;;;;;;;;;;349959;28;987;-62
2022/09/08 01:02:29;;;;;;;;;;;;;;;;;;349917;28;1030;-62
2022/09/08 01:02:40;;;;;;;;;;;;;;;;;;349871;28;979;-62
2022/09/08 01:02:50;;;;;;;;;;;;;;;;;;349891;28;1051;-63
2022/09/08 01:03:00;;;;;;;;;;;;;;;;;;349982;28;948;-62
2022/09/08 01:03:12;;;;;;;;;;;;;;;;;;349945;28;980;-63
2022/09/08 01:03:23;;;;;;;;;;;;;;;;;;349891;28;936;-63
2022/09/08 01:03:36;;;;;;;;;;;;;;;;;;349001;28;1371;-63
2022/09/08 01:03:46;;;;;;;;;;;;;;;;;;349912;28;924;-63
2022/09/08 01:03:57;;;;;;;;;;;;;;;;;;349924;28;772;-63
2022/09/08 01:04:08;;;;;;;;;;;;;;;;;;349916;28;1110;-63
2022/09/08 01:04:18;;;;;;;;;;;;;;;;;;349962;28;798;-63
2022/09/08 01:04:28;;;;;;;;;;;;;;;;;;349889;28;1007;-63
2022/09/08 01:04:38;;;;;;;;;;;;;;;;;;349972;28;841;-63
2022/09/08 01:05:01;;;;;;;;;;;;;;;;;;349876;28;972;-62
2022/09/08 01:05:32;;;;;;;;;;;;;;;;;;352542;28;1023;-63
2022/09/08 01:05:45;;;;;;;;;;;;;;;;;;352591;28;951;-63
2022/09/08 01:06:14;;;;;;;;;;;;;;;;;;352625;28;920;-63
2022/09/08 01:12:51;;;;;;;;;;;;;;;;;;348802;28;1329;-63
2022/09/08 01:13:03;;;;;;;;;;;;;;;;;;348522;28;929;-62
2022/09/08 01:13:14;;;;;;;;;;;;;;;;;;348581;28;849;-63
2022/09/08 01:13:25;;;;;;;;;;;;;;;;;;348540;28;976;-63
2022/09/08 01:13:37;;;;;;;;;;;;;;;;;;348556;28;929;-63
2022/09/08 01:13:47;;;;;;;;;;;;;;;;;;348485;28;992;-63
2022/09/08 01:13:58;;;;;;;;;;;;;;;;;;348085;28;1892;-62
2022/09/08 01:14:09;;;;;;;;;;;;;;;;;;349671;28;1286;-62
2022/09/08 01:14:19;;;;;;;;;;;;;;;;;;349870;28;944;-62
2022/09/08 01:14:42;;;;;;;;;;;;;;;;;;349969;28;971;-62
2022/09/08 01:14:55;;;;;;;;;;;;;;;;;;348759;28;1290;-62
2022/09/08 01:15:06;;;;;;;;;;;;;;;;;;349893;28;988;-63
2022/09/08 01:15:18;;;;;;;;;;;;;;;;;;349935;28;976;-62
2022/09/08 01:15:28;;;;;;;;;;;;;;;;;;349896;28;991;-62
2022/09/08 01:15:40;;;;;;;;;;;;;;;;;;349910;28;976;-63
2022/09/08 01:15:51;;;;;;;;;;;;;;;;;;349966;28;960;-62
2022/09/08 01:16:01;;;;;;;;;;;;;;;;;;349905;28;841;-62
2022/09/08 01:16:11;;;;;;;;;;;;;;;;;;349910;28;1007;-63
2022/09/08 01:16:21;;;;;;;;;;;;;;;;;;349920;28;999;-63
2022/09/08 01:16:36;;;;;;;;;;;;;;;;;;349920;28;845;-63
2022/09/08 01:16:48;;;;;;;;;;;;;;;;;;349673;28;948;-63
2022/09/08 01:17:10;;;;;;;;;;;;;;;;;;349871;28;1054;-63
2022/09/08 01:17:25;;;;;;;;;;;;;;;;;;349988;28;853;-62
2022/09/08 01:17:35;;;;;;;;;;;;;;;;;;349931;28;1115;-63
2022/09/08 01:17:47;;;;;;;;;;;;;;;;;;349916;28;1019;-63
2022/09/08 01:17:58;;;;;;;;;;;;;;;;;;349928;28;948;-62
2022/09/08 01:18:08;;;;;;;;;;;;;;;;;;349937;28;928;-63
2022/09/08 01:18:18;;;;;;;;;;;;;;;;;;349950;28;925;-63
2022/09/08 01:18:29;;;;;;;;;;;;;;;;;;349975;28;812;-63
2022/09/08 01:18:40;;;;;;;;;;;;;;;;;;349926;28;960;-63
2022/09/08 01:18:51;;;;;;;;;;;;;;;;;;349926;28;924;-63
2022/09/08 01:19:01;;;;;;;;;;;;;;;;;;349908;28;960;-63
2022/09/08 01:19:25;;;;;;;;;;;;;;;;;;349944;28;829;-63
2022/09/08 01:19:35;;;;;;;;;;;;;;;;;;349923;28;932;-63
2022/09/08 01:19:46;;;;;;;;;;;;;;;;;;349959;28;893;-63
2022/09/08 01:19:58;;;;;;;;;;;;;;;;;;349947;28;924;-63
2022/09/08 01:20:09;;;;;;;;;;;;;;;;;;349996;28;805;-63
2022/09/08 01:20:21;;;;;;;;;;;;;;;;;;350186;28;928;-63
2022/09/08 01:20:52;;;;;;;;;;;;;;;;;;350238;28;956;-63
2022/09/08 01:21:07;;;;;;;;;;;;;;;;;;348799;28;925;-63
2022/09/08 01:21:35;;;;;;;;;;;;;;;;;;348741;28;991;-63
2022/09/08 01:22:03;;;;;;;;;;;;;;;;;;348845;28;936;-63
2022/09/08 01:22:26;;;;;;;;;;;;;;;;;;348715;28;960;-64
2022/09/08 01:22:49;;;;;;;;;;;;;;;;;;348802;28;951;-64
2022/09/08 01:23:11;;;;;;;;;;;;;;;;;;348809;28;1012;-63
2022/09/08 01:23:37;;;;;;;;;;;;;;;;;;348785;28;1059;-63
2022/09/08 01:24:01;;;;;;;;;;;;;;;;;;348744;28;948;-64
2022/09/08 01:24:35;;;;;;;;;;;;;;;;;;348769;28;921;-63
2022/09/08 01:24:56;;;;;;;;;;;;;;;;;;348845;28;835;-64
2022/09/08 01:25:10;;;;;;;;;;;;;;;;;;348808;28;881;-63
2022/09/08 01:25:29;;;;;;;;;;;;;;;;;;348803;28;1070;-63
2022/09/08 01:26:18;;;;;;;;;;;;;;;;;;348767;28;937;-64
2022/09/08 01:26:35;;;;;;;;;;;;;;;;;;348667;28;937;-63
2022/09/08 01:26:46;;;;;;;;;;;;;;;;;;348639;28;980;-64
2022/09/08 01:27:11;;;;;;;;;;;;;;;;;;348656;28;845;-64
2022/09/08 01:27:23;;;;;;;;;;;;;;;;;;348558;28;910;-64
2022/09/08 01:27:35;;;;;;;;;;;;;;;;;;348662;28;920;-63
2022/09/08 01:27:48;;;;;;;;;;;;;;;;;;348607;28;1000;-63
2022/09/08 01:28:03;;;;;;;;;;;;;;;;;;348668;28;933;-64
2022/09/08 01:28:31;;;;;;;;;;;;;;;;;;348610;28;960;-63
2022/09/08 01:28:41;;;;;;;;;;;;;;;;;;348604;28;957;-63
2022/09/08 01:28:54;;;;;;;;;;;;;;;;;;348608;28;936;-64
2022/09/08 01:29:05;;;;;;;;;;;;;;;;;;348660;28;925;-64
2022/09/08 01:29:16;;;;;;;;;;;;;;;;;;348611;28;822;-63
2022/09/08 01:29:27;;;;;;;;;;;;;;;;;;348599;28;995;-64
2022/09/08 01:29:39;;;;;;;;;;;;;;;;;;348200;28;1384;-63
2022/09/08 01:29:52;;;;;;;;;;;;;;;;;;349933;28;1024;-64
2022/09/08 01:30:04;;;;;;;;;;;;;;;;;;350054;28;865;-63
2022/09/08 01:30:15;;;;;;;;;;;;;;;;;;349999;28;1206;-64
2022/09/08 01:30:25;;;;;;;;;;;;;;;;;;349989;28;778;-64
2022/09/08 01:30:35;;;;;;;;;;;;;;;;;;350019;28;1021;-63
2022/09/08 01:30:46;;;;;;;;;;;;;;;;;;349344;28;1874;-64
2022/09/08 01:30:58;;;;;;;;;;;;;;;;;;349375;28;1484;-63
2022/09/08 01:31:08;;;;;;;;;;;;;;;;;;350009;28;925;-63
2022/09/08 01:31:19;;;;;;;;;;;;;;;;;;349464;28;1897;-64
2022/09/08 01:31:37;;;;;;;;;;;;;;;;;;349138;28;1365;-64
2022/09/08 01:31:50;;;;;;;;;;;;;;;;;;348625;28;909;-64
2022/09/08 01:32:02;;;;;;;;;;;;;;;;;;348664;28;858;-63
2022/09/08 01:32:13;;;;;;;;;;;;;;;;;;348638;28;1374;-64
2022/09/08 01:32:24;;;;;;;;;;;;;;;;;;348153;28;1866;-63
2022/09/08 01:32:35;;;;;;;;;;;;;;;;;;348907;28;1574;-64
2022/09/08 01:32:46;;;;;;;;;;;;;;;;;;349155;28;1849;-64